sensor_id;sensor_type;location;lat;lon;timestamp;P1;durP1;ratioP1;P2;durP2;ratioP2
71629;SDS011;59479;51.902;8.212;2023-05-27T00:01:43;9.60;;;2.50;;
71629;SDS011;59479;51.902;8.212;2023-05-27T00:04:08;8.27;;;2.77;;
71629;SDS011;59479;51.902;8.212;2023-05-27T00:06:33;8.90;;;3.23;;
71629;SDS011;59479;51.902;8.212;2023-05-27T00:09:00;9.38;;;3.03;;
71629;SDS011;59479;51.902;8.212;2023-05-27T00:11:25;5.80;;;2.30;;
71629;SDS011;59479;51.902;8.212;2023-05-27T00:13:51;9.13;;;2.43;;
71629;SDS011;59479;51.902;8.212;2023-05-27T00:16:16;15.20;;;2.80;;
71629;SDS011;59479;51.902;8.212;2023-05-27T00:18:41;10.53;;;3.00;;
71629;SDS011;59479;51.902;8.212;2023-05-27T00:21:07;7.22;;;2.58;;
71629;SDS011;59479;51.902;8.212;2023-05-27T00:23:32;9.90;;;2.25;;
71629;SDS011;59479;51.902;8.212;2023-05-27T00:25:57;12.80;;;2.57;;
71629;SDS011;59479;51.902;8.212;2023-05-27T00:28:23;11.13;;;2.70;;
71629;SDS011;59479;51.902;8.212;2023-05-27T00:30:48;4.67;;;2.07;;
71629;SDS011;59479;51.902;8.212;2023-05-27T00:33:14;11.00;;;3.00;;
71629;SDS011;59479;51.902;8.212;2023-05-27T00:35:39;9.25;;;2.50;;
71629;SDS011;59479;51.902;8.212;2023-05-27T00:38:05;10.70;;;2.70;;
71629;SDS011;59479;51.902;8.212;2023-05-27T00:40:30;8.30;;;2.33;;
71629;SDS011;59479;51.902;8.212;2023-05-27T00:42:56;9.23;;;2.80;;
71629;SDS011;59479;51.902;8.212;2023-05-27T00:45:22;7.30;;;2.73;;
71629;SDS011;59479;51.902;8.212;2023-05-27T00:47:47;10.40;;;3.40;;
71629;SDS011;59479;51.902;8.212;2023-05-27T00:50:14;8.68;;;2.63;;
71629;SDS011;59479;51.902;8.212;2023-05-27T00:52:39;11.50;;;2.70;;
71629;SDS011;59479;51.902;8.212;2023-05-27T00:55:05;9.23;;;2.63;;
71629;SDS011;59479;51.902;8.212;2023-05-27T00:57:31;6.60;;;2.75;;
71629;SDS011;59479;51.902;8.212;2023-05-27T00:59:58;11.33;;;2.93;;
71629;SDS011;59479;51.902;8.212;2023-05-27T01:02:23;9.00;;;2.97;;
71629;SDS011;59479;51.902;8.212;2023-05-27T01:04:48;10.00;;;2.57;;
71629;SDS011;59479;51.902;8.212;2023-05-27T01:07:17;8.40;;;3.47;;
71629;SDS011;59479;51.902;8.212;2023-05-27T01:09:53;8.27;;;2.65;;
71629;SDS011;59479;51.902;8.212;2023-05-27T01:15:19;9.52;;;2.90;;
71629;SDS011;59479;51.902;8.212;2023-05-27T01:17:45;12.23;;;3.53;;
71629;SDS011;59479;51.902;8.212;2023-05-27T01:20:12;8.00;;;2.67;;
71629;SDS011;59479;51.902;8.212;2023-05-27T01:22:39;10.52;;;2.95;;
71629;SDS011;59479;51.902;8.212;2023-05-27T01:25:07;6.90;;;2.83;;
71629;SDS011;59479;51.902;8.212;2023-05-27T01:27:33;9.55;;;2.45;;
71629;SDS011;59479;51.902;8.212;2023-05-27T01:29:58;9.67;;;2.87;;
71629;SDS011;59479;51.902;8.212;2023-05-27T01:35:07;8.63;;;2.97;;
71629;SDS011;59479;51.902;8.212;2023-05-27T01:37:40;6.70;;;2.67;;
71629;SDS011;59479;51.902;8.212;2023-05-27T01:40:07;7.83;;;2.63;;
71629;SDS011;59479;51.902;8.212;2023-05-27T01:42:37;6.60;;;2.30;;
71629;SDS011;59479;51.902;8.212;2023-05-27T01:45:04;6.47;;;2.67;;
71629;SDS011;59479;51.902;8.212;2023-05-27T01:47:31;8.45;;;2.65;;
71629;SDS011;59479;51.902;8.212;2023-05-27T01:49:57;11.17;;;2.73;;
71629;SDS011;59479;51.902;8.212;2023-05-27T01:52:22;8.60;;;3.00;;
71629;SDS011;59479;51.902;8.212;2023-05-27T01:54:47;7.90;;;2.40;;
71629;SDS011;59479;51.902;8.212;2023-05-27T01:57:13;8.97;;;2.47;;
71629;SDS011;59479;51.902;8.212;2023-05-27T01:59:38;7.72;;;2.40;;
71629;SDS011;59479;51.902;8.212;2023-05-27T02:02:04;6.37;;;2.73;;
71629;SDS011;59479;51.902;8.212;2023-05-27T02:04:30;7.13;;;2.25;;
71629;SDS011;59479;51.902;8.212;2023-05-27T02:06:55;11.33;;;2.40;;
71629;SDS011;59479;51.902;8.212;2023-05-27T02:09:20;5.80;;;2.37;;
71629;SDS011;59479;51.902;8.212;2023-05-27T02:11:46;6.47;;;2.30;;
71629;SDS011;59479;51.902;8.212;2023-05-27T02:14:11;7.27;;;2.80;;
71629;SDS011;59479;51.902;8.212;2023-05-27T02:16:37;6.63;;;2.80;;
71629;SDS011;59479;51.902;8.212;2023-05-27T02:19:04;9.27;;;2.88;;
71629;SDS011;59479;51.902;8.212;2023-05-27T02:21:30;8.53;;;2.53;;
71629;SDS011;59479;51.902;8.212;2023-05-27T02:23:55;8.52;;;2.67;;
71629;SDS011;59479;51.902;8.212;2023-05-27T02:26:20;5.90;;;2.33;;
71629;SDS011;59479;51.902;8.212;2023-05-27T02:28:46;9.77;;;2.40;;
71629;SDS011;59479;51.902;8.212;2023-05-27T02:31:12;6.18;;;2.10;;
71629;SDS011;59479;51.902;8.212;2023-05-27T02:33:37;7.33;;;2.80;;
71629;SDS011;59479;51.902;8.212;2023-05-27T02:36:03;6.33;;;3.20;;
71629;SDS011;59479;51.902;8.212;2023-05-27T02:38:28;9.23;;;2.80;;
71629;SDS011;59479;51.902;8.212;2023-05-27T02:40:54;7.50;;;2.97;;
71629;SDS011;59479;51.902;8.212;2023-05-27T02:43:19;8.57;;;2.70;;
71629;SDS011;59479;51.902;8.212;2023-05-27T02:45:44;8.13;;;2.53;;
71629;SDS011;59479;51.902;8.212;2023-05-27T02:48:10;6.67;;;2.50;;
71629;SDS011;59479;51.902;8.212;2023-05-27T02:50:35;6.50;;;2.77;;
71629;SDS011;59479;51.902;8.212;2023-05-27T02:53:00;9.20;;;2.87;;
71629;SDS011;59479;51.902;8.212;2023-05-27T02:55:26;7.40;;;2.60;;
71629;SDS011;59479;51.902;8.212;2023-05-27T02:57:51;7.25;;;2.95;;
71629;SDS011;59479;51.902;8.212;2023-05-27T03:00:17;11.40;;;2.80;;
71629;SDS011;59479;51.902;8.212;2023-05-27T03:02:42;7.60;;;2.70;;
71629;SDS011;59479;51.902;8.212;2023-05-27T03:05:08;9.73;;;2.72;;
71629;SDS011;59479;51.902;8.212;2023-05-27T03:07:33;7.50;;;2.90;;
71629;SDS011;59479;51.902;8.212;2023-05-27T03:09:59;8.30;;;3.27;;
71629;SDS011;59479;51.902;8.212;2023-05-27T03:12:24;12.23;;;2.40;;
71629;SDS011;59479;51.902;8.212;2023-05-27T03:14:50;9.97;;;2.40;;
71629;SDS011;59479;51.902;8.212;2023-05-27T03:17:15;7.75;;;2.53;;
71629;SDS011;59479;51.902;8.212;2023-05-27T03:19:40;6.43;;;2.33;;
71629;SDS011;59479;51.902;8.212;2023-05-27T03:22:07;7.75;;;2.42;;
71629;SDS011;59479;51.902;8.212;2023-05-27T03:24:34;8.30;;;2.90;;
71629;SDS011;59479;51.902;8.212;2023-05-27T03:27:00;6.00;;;2.47;;
71629;SDS011;59479;51.902;8.212;2023-05-27T03:29:26;7.60;;;2.70;;
71629;SDS011;59479;51.902;8.212;2023-05-27T03:31:52;8.82;;;3.08;;
71629;SDS011;59479;51.902;8.212;2023-05-27T03:34:17;9.52;;;3.15;;
71629;SDS011;59479;51.902;8.212;2023-05-27T03:36:42;5.77;;;2.47;;
71629;SDS011;59479;51.902;8.212;2023-05-27T03:39:11;8.05;;;3.20;;
71629;SDS011;59479;51.902;8.212;2023-05-27T03:41:37;6.30;;;2.47;;
71629;SDS011;59479;51.902;8.212;2023-05-27T03:44:03;7.15;;;2.40;;
71629;SDS011;59479;51.902;8.212;2023-05-27T03:46:28;7.95;;;3.35;;
71629;SDS011;59479;51.902;8.212;2023-05-27T03:48:53;6.73;;;2.80;;
71629;SDS011;59479;51.902;8.212;2023-05-27T03:51:19;5.17;;;2.50;;
71629;SDS011;59479;51.902;8.212;2023-05-27T03:53:45;8.70;;;2.97;;
71629;SDS011;59479;51.902;8.212;2023-05-27T03:56:11;9.67;;;2.90;;
71629;SDS011;59479;51.902;8.212;2023-05-27T03:58:36;5.20;;;2.60;;
71629;SDS011;59479;51.902;8.212;2023-05-27T04:01:01;10.40;;;3.13;;
71629;SDS011;59479;51.902;8.212;2023-05-27T04:03:27;6.00;;;2.80;;
71629;SDS011;59479;51.902;8.212;2023-05-27T04:05:53;7.68;;;3.17;;
71629;SDS011;59479;51.902;8.212;2023-05-27T04:08:18;7.23;;;3.10;;
71629;SDS011;59479;51.902;8.212;2023-05-27T04:10:43;7.07;;;3.30;;
71629;SDS011;59479;51.902;8.212;2023-05-27T04:13:09;12.57;;;3.37;;
71629;SDS011;59479;51.902;8.212;2023-05-27T04:15:34;10.80;;;3.30;;
71629;SDS011;59479;51.902;8.212;2023-05-27T04:17:59;10.20;;;3.30;;
71629;SDS011;59479;51.902;8.212;2023-05-27T04:20:24;9.30;;;2.57;;
71629;SDS011;59479;51.902;8.212;2023-05-27T04:22:50;8.80;;;2.60;;
71629;SDS011;59479;51.902;8.212;2023-05-27T04:25:15;7.43;;;2.80;;
71629;SDS011;59479;51.902;8.212;2023-05-27T04:27:40;6.33;;;2.60;;
71629;SDS011;59479;51.902;8.212;2023-05-27T04:30:06;9.43;;;3.17;;
71629;SDS011;59479;51.902;8.212;2023-05-27T04:32:32;8.27;;;3.22;;
71629;SDS011;59479;51.902;8.212;2023-05-27T04:35:04;8.43;;;3.13;;
71629;SDS011;59479;51.902;8.212;2023-05-27T04:37:32;9.70;;;2.40;;
71629;SDS011;59479;51.902;8.212;2023-05-27T04:39:58;8.98;;;2.80;;
71629;SDS011;59479;51.902;8.212;2023-05-27T04:42:23;5.53;;;2.43;;
71629;SDS011;59479;51.902;8.212;2023-05-27T04:44:49;9.23;;;3.20;;
71629;SDS011;59479;51.902;8.212;2023-05-27T04:47:15;6.07;;;3.22;;
71629;SDS011;59479;51.902;8.212;2023-05-27T04:49:41;6.77;;;2.73;;
71629;SDS011;59479;51.902;8.212;2023-05-27T04:52:07;8.20;;;2.92;;
71629;SDS011;59479;51.902;8.212;2023-05-27T04:54:32;9.60;;;2.80;;
71629;SDS011;59479;51.902;8.212;2023-05-27T04:56:59;7.32;;;2.50;;
71629;SDS011;59479;51.902;8.212;2023-05-27T04:59:24;8.37;;;2.70;;
71629;SDS011;59479;51.902;8.212;2023-05-27T05:02:00;9.73;;;2.58;;
71629;SDS011;59479;51.902;8.212;2023-05-27T05:04:38;13.45;;;3.63;;
71629;SDS011;59479;51.902;8.212;2023-05-27T05:07:03;10.48;;;3.90;;
71629;SDS011;59479;51.902;8.212;2023-05-27T05:09:29;10.83;;;3.47;;
71629;SDS011;59479;51.902;8.212;2023-05-27T05:11:55;12.98;;;3.10;;
71629;SDS011;59479;51.902;8.212;2023-05-27T05:14:20;10.10;;;3.50;;
71629;SDS011;59479;51.902;8.212;2023-05-27T05:16:46;12.27;;;3.40;;
71629;SDS011;59479;51.902;8.212;2023-05-27T05:19:14;12.33;;;3.10;;
71629;SDS011;59479;51.902;8.212;2023-05-27T05:21:39;8.90;;;2.50;;
71629;SDS011;59479;51.902;8.212;2023-05-27T05:24:04;10.23;;;3.15;;
71629;SDS011;59479;51.902;8.212;2023-05-27T05:26:31;8.90;;;3.13;;
71629;SDS011;59479;51.902;8.212;2023-05-27T05:28:56;11.73;;;2.73;;
71629;SDS011;59479;51.902;8.212;2023-05-27T05:31:21;10.75;;;3.28;;
71629;SDS011;59479;51.902;8.212;2023-05-27T05:33:46;13.10;;;3.43;;
71629;SDS011;59479;51.902;8.212;2023-05-27T05:36:12;10.43;;;3.10;;
71629;SDS011;59479;51.902;8.212;2023-05-27T05:38:37;9.47;;;3.27;;
71629;SDS011;59479;51.902;8.212;2023-05-27T05:41:03;10.33;;;2.97;;
71629;SDS011;59479;51.902;8.212;2023-05-27T05:43:28;10.30;;;3.10;;
71629;SDS011;59479;51.902;8.212;2023-05-27T05:45:54;15.48;;;3.47;;
71629;SDS011;59479;51.902;8.212;2023-05-27T05:48:19;7.70;;;3.10;;
71629;SDS011;59479;51.902;8.212;2023-05-27T05:50:48;10.77;;;3.20;;
71629;SDS011;59479;51.902;8.212;2023-05-27T05:53:13;9.43;;;3.53;;
71629;SDS011;59479;51.902;8.212;2023-05-27T05:55:39;13.17;;;3.50;;
71629;SDS011;59479;51.902;8.212;2023-05-27T05:58:04;13.90;;;3.88;;
71629;SDS011;59479;51.902;8.212;2023-05-27T06:00:29;12.98;;;3.38;;
71629;SDS011;59479;51.902;8.212;2023-05-27T06:02:55;7.83;;;3.10;;
71629;SDS011;59479;51.902;8.212;2023-05-27T06:05:20;8.83;;;3.33;;
71629;SDS011;59479;51.902;8.212;2023-05-27T06:07:47;14.18;;;3.75;;
71629;SDS011;59479;51.902;8.212;2023-05-27T06:10:12;11.13;;;4.10;;
71629;SDS011;59479;51.902;8.212;2023-05-27T06:12:38;11.27;;;3.13;;
71629;SDS011;59479;51.902;8.212;2023-05-27T06:15:03;9.63;;;3.40;;
71629;SDS011;59479;51.902;8.212;2023-05-27T06:17:29;8.93;;;3.63;;
71629;SDS011;59479;51.902;8.212;2023-05-27T06:19:54;14.03;;;3.50;;
71629;SDS011;59479;51.902;8.212;2023-05-27T06:22:19;9.83;;;3.30;;
71629;SDS011;59479;51.902;8.212;2023-05-27T06:24:45;10.82;;;3.03;;
71629;SDS011;59479;51.902;8.212;2023-05-27T06:27:10;12.82;;;4.05;;
71629;SDS011;59479;51.902;8.212;2023-05-27T06:29:36;10.20;;;3.07;;
71629;SDS011;59479;51.902;8.212;2023-05-27T06:32:01;13.97;;;3.80;;
71629;SDS011;59479;51.902;8.212;2023-05-27T06:34:26;8.50;;;3.33;;
71629;SDS011;59479;51.902;8.212;2023-05-27T06:36:52;10.80;;;3.77;;
71629;SDS011;59479;51.902;8.212;2023-05-27T06:39:17;15.33;;;4.23;;
71629;SDS011;59479;51.902;8.212;2023-05-27T06:41:42;14.47;;;3.40;;
71629;SDS011;59479;51.902;8.212;2023-05-27T06:44:08;11.98;;;3.70;;
71629;SDS011;59479;51.902;8.212;2023-05-27T06:46:34;12.00;;;3.80;;
71629;SDS011;59479;51.902;8.212;2023-05-27T06:48:59;13.87;;;4.23;;
71629;SDS011;59479;51.902;8.212;2023-05-27T06:51:24;10.03;;;4.00;;
71629;SDS011;59479;51.902;8.212;2023-05-27T06:53:50;13.35;;;3.50;;
71629;SDS011;59479;51.902;8.212;2023-05-27T06:56:15;10.53;;;3.57;;
71629;SDS011;59479;51.902;8.212;2023-05-27T06:58:41;10.93;;;3.70;;
71629;SDS011;59479;51.902;8.212;2023-05-27T07:01:06;14.70;;;4.13;;
71629;SDS011;59479;51.902;8.212;2023-05-27T07:03:32;9.70;;;3.75;;
71629;SDS011;59479;51.902;8.212;2023-05-27T07:05:58;8.70;;;3.40;;
71629;SDS011;59479;51.902;8.212;2023-05-27T07:08:23;12.23;;;4.03;;
71629;SDS011;59479;51.902;8.212;2023-05-27T07:10:48;10.97;;;3.57;;
71629;SDS011;59479;51.902;8.212;2023-05-27T07:13:14;12.27;;;3.67;;
71629;SDS011;59479;51.902;8.212;2023-05-27T07:15:40;15.43;;;3.40;;
71629;SDS011;59479;51.902;8.212;2023-05-27T07:18:06;11.00;;;3.97;;
71629;SDS011;59479;51.902;8.212;2023-05-27T07:20:31;10.83;;;3.93;;
71629;SDS011;59479;51.902;8.212;2023-05-27T07:22:58;12.57;;;4.07;;
71629;SDS011;59479;51.902;8.212;2023-05-27T07:25:23;12.93;;;3.73;;
71629;SDS011;59479;51.902;8.212;2023-05-27T07:27:48;12.83;;;3.87;;
71629;SDS011;59479;51.902;8.212;2023-05-27T07:30:14;11.33;;;3.67;;
71629;SDS011;59479;51.902;8.212;2023-05-27T07:32:40;11.20;;;4.30;;
71629;SDS011;59479;51.902;8.212;2023-05-27T07:35:05;9.53;;;3.90;;
71629;SDS011;59479;51.902;8.212;2023-05-27T07:37:31;14.95;;;4.70;;
71629;SDS011;59479;51.902;8.212;2023-05-27T07:39:56;11.43;;;4.47;;
71629;SDS011;59479;51.902;8.212;2023-05-27T07:42:22;14.23;;;3.97;;
71629;SDS011;59479;51.902;8.212;2023-05-27T07:44:47;15.07;;;4.10;;
71629;SDS011;59479;51.902;8.212;2023-05-27T07:47:12;15.30;;;3.37;;
71629;SDS011;59479;51.902;8.212;2023-05-27T07:49:37;13.68;;;3.42;;
71629;SDS011;59479;51.902;8.212;2023-05-27T07:52:03;11.23;;;3.08;;
71629;SDS011;59479;51.902;8.212;2023-05-27T07:54:28;13.20;;;2.97;;
71629;SDS011;59479;51.902;8.212;2023-05-27T07:56:54;11.00;;;3.87;;
71629;SDS011;59479;51.902;8.212;2023-05-27T07:59:19;9.63;;;3.10;;
71629;SDS011;59479;51.902;8.212;2023-05-27T08:01:44;11.70;;;3.47;;
71629;SDS011;59479;51.902;8.212;2023-05-27T08:04:10;9.67;;;2.73;;
71629;SDS011;59479;51.902;8.212;2023-05-27T08:06:35;11.07;;;3.07;;
71629;SDS011;59479;51.902;8.212;2023-05-27T08:09:01;11.00;;;3.78;;
71629;SDS011;59479;51.902;8.212;2023-05-27T08:11:26;12.03;;;3.20;;
71629;SDS011;59479;51.902;8.212;2023-05-27T08:13:52;12.30;;;2.92;;
71629;SDS011;59479;51.902;8.212;2023-05-27T08:16:17;7.00;;;2.40;;
71629;SDS011;59479;51.902;8.212;2023-05-27T08:18:43;6.83;;;2.73;;
71629;SDS011;59479;51.902;8.212;2023-05-27T08:21:08;10.23;;;3.03;;
71629;SDS011;59479;51.902;8.212;2023-05-27T08:23:33;7.83;;;3.20;;
71629;SDS011;59479;51.902;8.212;2023-05-27T08:25:58;10.13;;;2.57;;
71629;SDS011;59479;51.902;8.212;2023-05-27T08:28:24;12.97;;;3.60;;
71629;SDS011;59479;51.902;8.212;2023-05-27T08:30:49;12.90;;;3.23;;
71629;SDS011;59479;51.902;8.212;2023-05-27T08:33:15;14.35;;;3.08;;
71629;SDS011;59479;51.902;8.212;2023-05-27T08:35:40;10.77;;;3.23;;
71629;SDS011;59479;51.902;8.212;2023-05-27T08:38:06;8.27;;;2.83;;
71629;SDS011;59479;51.902;8.212;2023-05-27T08:40:31;10.68;;;2.92;;
71629;SDS011;59479;51.902;8.212;2023-05-27T08:42:56;10.10;;;3.03;;
71629;SDS011;59479;51.902;8.212;2023-05-27T08:45:22;12.47;;;2.73;;
71629;SDS011;59479;51.902;8.212;2023-05-27T08:47:48;7.17;;;2.90;;
71629;SDS011;59479;51.902;8.212;2023-05-27T08:50:17;9.30;;;3.40;;
71629;SDS011;59479;51.902;8.212;2023-05-27T08:52:47;13.07;;;3.17;;
71629;SDS011;59479;51.902;8.212;2023-05-27T08:55:15;13.80;;;3.58;;
71629;SDS011;59479;51.902;8.212;2023-05-27T08:57:46;9.82;;;3.55;;
71629;SDS011;59479;51.902;8.212;2023-05-27T09:00:16;8.95;;;2.88;;
71629;SDS011;59479;51.902;8.212;2023-05-27T09:02:42;13.60;;;3.63;;
71629;SDS011;59479;51.902;8.212;2023-05-27T09:05:11;9.80;;;3.05;;
71629;SDS011;59479;51.902;8.212;2023-05-27T09:07:37;7.25;;;3.10;;
71629;SDS011;59479;51.902;8.212;2023-05-27T09:10:03;10.03;;;3.30;;
71629;SDS011;59479;51.902;8.212;2023-05-27T09:12:31;8.45;;;3.08;;
71629;SDS011;59479;51.902;8.212;2023-05-27T09:14:57;9.27;;;2.90;;
71629;SDS011;59479;51.902;8.212;2023-05-27T09:17:22;11.53;;;3.50;;
71629;SDS011;59479;51.902;8.212;2023-05-27T09:19:49;11.98;;;3.15;;
71629;SDS011;59479;51.902;8.212;2023-05-27T09:24:56;9.55;;;4.05;;
71629;SDS011;59479;51.902;8.212;2023-05-27T09:27:26;9.43;;;3.65;;
71629;SDS011;59479;51.902;8.212;2023-05-27T09:29:52;7.72;;;3.40;;
71629;SDS011;59479;51.902;8.212;2023-05-27T09:32:28;13.18;;;4.25;;
71629;SDS011;59479;51.902;8.212;2023-05-27T09:34:56;15.13;;;3.40;;
71629;SDS011;59479;51.902;8.212;2023-05-27T09:37:25;10.65;;;3.70;;
71629;SDS011;59479;51.902;8.212;2023-05-27T09:39:58;13.40;;;3.40;;
71629;SDS011;59479;51.902;8.212;2023-05-27T09:42:24;9.50;;;3.70;;
71629;SDS011;59479;51.902;8.212;2023-05-27T09:44:49;12.20;;;4.00;;
71629;SDS011;59479;51.902;8.212;2023-05-27T09:47:17;13.70;;;4.00;;
71629;SDS011;59479;51.902;8.212;2023-05-27T09:49:45;10.15;;;3.85;;
71629;SDS011;59479;51.902;8.212;2023-05-27T09:52:14;15.20;;;3.55;;
71629;SDS011;59479;51.902;8.212;2023-05-27T09:54:44;10.02;;;3.33;;
71629;SDS011;59479;51.902;8.212;2023-05-27T09:57:09;11.35;;;3.53;;
71629;SDS011;59479;51.902;8.212;2023-05-27T09:59:35;9.18;;;3.40;;
71629;SDS011;59479;51.902;8.212;2023-05-27T10:02:02;12.70;;;3.10;;
71629;SDS011;59479;51.902;8.212;2023-05-27T10:04:28;10.48;;;3.60;;
71629;SDS011;59479;51.902;8.212;2023-05-27T10:06:55;9.82;;;3.42;;
71629;SDS011;59479;51.902;8.212;2023-05-27T10:09:21;17.35;;;4.57;;
71629;SDS011;59479;51.902;8.212;2023-05-27T10:11:47;10.97;;;3.60;;
71629;SDS011;59479;51.902;8.212;2023-05-27T10:14:14;13.05;;;3.70;;
71629;SDS011;59479;51.902;8.212;2023-05-27T10:16:50;12.23;;;4.22;;
71629;SDS011;59479;51.902;8.212;2023-05-27T10:19:16;11.15;;;3.88;;
71629;SDS011;59479;51.902;8.212;2023-05-27T10:21:42;13.20;;;3.43;;
71629;SDS011;59479;51.902;8.212;2023-05-27T10:24:10;9.18;;;3.28;;
71629;SDS011;59479;51.902;8.212;2023-05-27T10:26:39;8.80;;;3.40;;
71629;SDS011;59479;51.902;8.212;2023-05-27T10:29:10;12.57;;;3.67;;
71629;SDS011;59479;51.902;8.212;2023-05-27T10:34:14;11.18;;;3.17;;
71629;SDS011;59479;51.902;8.212;2023-05-27T10:36:40;10.52;;;3.33;;
71629;SDS011;59479;51.902;8.212;2023-05-27T10:39:06;11.05;;;3.38;;
71629;SDS011;59479;51.902;8.212;2023-05-27T10:44:28;10.88;;;3.20;;
71629;SDS011;59479;51.902;8.212;2023-05-27T10:46:59;10.73;;;3.45;;
71629;SDS011;59479;51.902;8.212;2023-05-27T10:49:28;9.88;;;3.22;;
71629;SDS011;59479;51.902;8.212;2023-05-27T10:52:00;11.05;;;3.00;;
71629;SDS011;59479;51.902;8.212;2023-05-27T10:54:33;10.38;;;3.20;;
71629;SDS011;59479;51.902;8.212;2023-05-27T10:56:59;8.93;;;3.60;;
71629;SDS011;59479;51.902;8.212;2023-05-27T10:59:29;13.05;;;3.40;;
71629;SDS011;59479;51.902;8.212;2023-05-27T11:02:04;11.20;;;3.97;;
71629;SDS011;59479;51.902;8.212;2023-05-27T11:04:37;13.70;;;3.17;;
71629;SDS011;59479;51.902;8.212;2023-05-27T11:07:02;11.55;;;3.53;;
71629;SDS011;59479;51.902;8.212;2023-05-27T11:09:28;11.02;;;3.33;;
71629;SDS011;59479;51.902;8.212;2023-05-27T11:11:55;11.38;;;3.08;;
71629;SDS011;59479;51.902;8.212;2023-05-27T11:14:20;11.20;;;3.37;;
71629;SDS011;59479;51.902;8.212;2023-05-27T11:16:49;10.55;;;3.08;;
71629;SDS011;59479;51.902;8.212;2023-05-27T11:19:16;10.38;;;3.25;;
71629;SDS011;59479;51.902;8.212;2023-05-27T11:21:48;8.52;;;3.08;;
71629;SDS011;59479;51.902;8.212;2023-05-27T11:24:14;9.23;;;3.27;;
71629;SDS011;59479;51.902;8.212;2023-05-27T11:26:41;9.15;;;2.88;;
71629;SDS011;59479;51.902;8.212;2023-05-27T11:29:12;9.63;;;2.97;;
71629;SDS011;59479;51.902;8.212;2023-05-27T11:31:38;10.10;;;3.20;;
71629;SDS011;59479;51.902;8.212;2023-05-27T11:34:10;6.82;;;2.58;;
71629;SDS011;59479;51.902;8.212;2023-05-27T11:36:37;8.73;;;2.90;;
71629;SDS011;59479;51.902;8.212;2023-05-27T11:39:03;10.48;;;3.08;;
71629;SDS011;59479;51.902;8.212;2023-05-27T11:41:29;6.70;;;3.00;;
71629;SDS011;59479;51.902;8.212;2023-05-27T11:44:05;10.07;;;2.90;;
71629;SDS011;59479;51.902;8.212;2023-05-27T11:46:41;8.55;;;2.63;;
71629;SDS011;59479;51.902;8.212;2023-05-27T11:49:08;8.68;;;2.50;;
71629;SDS011;59479;51.902;8.212;2023-05-27T11:51:48;7.78;;;2.97;;
71629;SDS011;59479;51.902;8.212;2023-05-27T11:54:17;9.10;;;2.70;;
71629;SDS011;59479;51.902;8.212;2023-05-27T11:56:45;8.73;;;2.92;;
71629;SDS011;59479;51.902;8.212;2023-05-27T11:59:10;7.53;;;2.78;;
71629;SDS011;59479;51.902;8.212;2023-05-27T12:01:36;7.57;;;3.27;;
71629;SDS011;59479;51.902;8.212;2023-05-27T12:04:01;6.27;;;2.60;;
71629;SDS011;59479;51.902;8.212;2023-05-27T12:06:27;8.23;;;2.90;;
71629;SDS011;59479;51.902;8.212;2023-05-27T12:08:52;5.80;;;2.70;;
71629;SDS011;59479;51.902;8.212;2023-05-27T12:11:18;6.50;;;2.70;;
71629;SDS011;59479;51.902;8.212;2023-05-27T12:13:43;7.23;;;2.83;;
71629;SDS011;59479;51.902;8.212;2023-05-27T12:16:09;7.10;;;2.30;;
71629;SDS011;59479;51.902;8.212;2023-05-27T12:18:35;8.43;;;2.53;;
71629;SDS011;59479;51.902;8.212;2023-05-27T12:21:01;10.98;;;2.30;;
71629;SDS011;59479;51.902;8.212;2023-05-27T12:23:27;5.35;;;2.25;;
71629;SDS011;59479;51.902;8.212;2023-05-27T12:25:52;9.90;;;2.47;;
71629;SDS011;59479;51.902;8.212;2023-05-27T12:28:18;6.57;;;2.60;;
71629;SDS011;59479;51.902;8.212;2023-05-27T12:30:43;5.40;;;2.63;;
71629;SDS011;59479;51.902;8.212;2023-05-27T12:33:08;6.23;;;2.30;;
71629;SDS011;59479;51.902;8.212;2023-05-27T12:35:34;8.27;;;2.20;;
71629;SDS011;59479;51.902;8.212;2023-05-27T12:37:59;6.57;;;2.30;;
71629;SDS011;59479;51.902;8.212;2023-05-27T12:40:25;5.75;;;2.30;;
71629;SDS011;59479;51.902;8.212;2023-05-27T12:42:51;7.13;;;2.30;;
71629;SDS011;59479;51.902;8.212;2023-05-27T12:45:16;6.77;;;3.03;;
71629;SDS011;59479;51.902;8.212;2023-05-27T12:47:42;29.53;;;3.50;;
71629;SDS011;59479;51.902;8.212;2023-05-27T12:50:07;8.03;;;2.23;;
71629;SDS011;59479;51.902;8.212;2023-05-27T12:52:33;8.68;;;2.30;;
71629;SDS011;59479;51.902;8.212;2023-05-27T12:55:00;7.43;;;2.30;;
71629;SDS011;59479;51.902;8.212;2023-05-27T12:57:26;5.47;;;2.10;;
71629;SDS011;59479;51.902;8.212;2023-05-27T12:59:51;6.20;;;2.40;;
71629;SDS011;59479;51.902;8.212;2023-05-27T13:02:17;7.97;;;2.70;;
71629;SDS011;59479;51.902;8.212;2023-05-27T13:04:42;7.17;;;2.80;;
71629;SDS011;59479;51.902;8.212;2023-05-27T13:07:10;7.80;;;2.40;;
71629;SDS011;59479;51.902;8.212;2023-05-27T13:09:37;8.27;;;2.38;;
71629;SDS011;59479;51.902;8.212;2023-05-27T13:12:04;8.65;;;2.47;;
71629;SDS011;59479;51.902;8.212;2023-05-27T13:14:29;9.27;;;2.77;;
71629;SDS011;59479;51.902;8.212;2023-05-27T13:16:55;6.73;;;2.30;;
71629;SDS011;59479;51.902;8.212;2023-05-27T13:19:20;6.90;;;2.60;;
71629;SDS011;59479;51.902;8.212;2023-05-27T13:21:46;6.23;;;2.30;;
71629;SDS011;59479;51.902;8.212;2023-05-27T13:24:11;8.83;;;2.50;;
71629;SDS011;59479;51.902;8.212;2023-05-27T13:26:37;8.93;;;2.50;;
71629;SDS011;59479;51.902;8.212;2023-05-27T13:29:02;5.90;;;2.58;;
71629;SDS011;59479;51.902;8.212;2023-05-27T13:31:27;8.13;;;2.27;;
71629;SDS011;59479;51.902;8.212;2023-05-27T13:33:53;5.93;;;2.40;;
71629;SDS011;59479;51.902;8.212;2023-05-27T13:36:18;6.33;;;2.20;;
71629;SDS011;59479;51.902;8.212;2023-05-27T13:38:43;6.73;;;2.53;;
71629;SDS011;59479;51.902;8.212;2023-05-27T13:41:09;4.90;;;2.20;;
71629;SDS011;59479;51.902;8.212;2023-05-27T13:43:34;6.97;;;2.77;;
71629;SDS011;59479;51.902;8.212;2023-05-27T13:45:59;6.95;;;3.05;;
71629;SDS011;59479;51.902;8.212;2023-05-27T13:48:25;9.23;;;2.35;;
71629;SDS011;59479;51.902;8.212;2023-05-27T13:50:50;8.00;;;2.67;;
71629;SDS011;59479;51.902;8.212;2023-05-27T13:53:16;7.23;;;2.40;;
71629;SDS011;59479;51.902;8.212;2023-05-27T13:55:41;8.07;;;2.17;;
71629;SDS011;59479;51.902;8.212;2023-05-27T13:58:08;6.80;;;2.20;;
71629;SDS011;59479;51.902;8.212;2023-05-27T14:00:34;5.33;;;2.30;;
71629;SDS011;59479;51.902;8.212;2023-05-27T14:02:59;8.20;;;2.50;;
71629;SDS011;59479;51.902;8.212;2023-05-27T14:05:25;5.47;;;2.10;;
71629;SDS011;59479;51.902;8.212;2023-05-27T14:07:53;5.97;;;2.00;;
71629;SDS011;59479;51.902;8.212;2023-05-27T14:10:19;6.23;;;2.20;;
71629;SDS011;59479;51.902;8.212;2023-05-27T14:12:45;5.25;;;1.77;;
71629;SDS011;59479;51.902;8.212;2023-05-27T14:15:11;5.05;;;2.15;;
71629;SDS011;59479;51.902;8.212;2023-05-27T14:17:37;5.45;;;2.00;;
71629;SDS011;59479;51.902;8.212;2023-05-27T14:20:03;6.20;;;2.10;;
71629;SDS011;59479;51.902;8.212;2023-05-27T14:22:30;7.22;;;2.53;;
71629;SDS011;59479;51.902;8.212;2023-05-27T14:24:55;7.53;;;2.37;;
71629;SDS011;59479;51.902;8.212;2023-05-27T14:27:21;6.45;;;2.28;;
71629;SDS011;59479;51.902;8.212;2023-05-27T14:29:46;5.57;;;2.13;;
71629;SDS011;59479;51.902;8.212;2023-05-27T14:32:11;7.23;;;2.40;;
71629;SDS011;59479;51.902;8.212;2023-05-27T14:34:36;5.87;;;2.27;;
71629;SDS011;59479;51.902;8.212;2023-05-27T14:37:02;7.37;;;2.10;;
71629;SDS011;59479;51.902;8.212;2023-05-27T14:39:27;6.20;;;2.00;;
71629;SDS011;59479;51.902;8.212;2023-05-27T14:41:52;7.73;;;2.67;;
71629;SDS011;59479;51.902;8.212;2023-05-27T14:44:20;7.93;;;2.47;;
71629;SDS011;59479;51.902;8.212;2023-05-27T14:46:45;8.57;;;2.70;;
71629;SDS011;59479;51.902;8.212;2023-05-27T14:49:10;5.80;;;2.30;;
71629;SDS011;59479;51.902;8.212;2023-05-27T14:51:36;6.87;;;2.30;;